Time;durP1;ratioP1;P1;durP2;ratioP2;P2;SDS_P1;SDS_P2;PMS_P1;PMS_P2;Temp;Humidity;BMP_temperature;BMP_pressure;BME280_temperature;BME280_humidity;BME280_pressure;Samples;Min_cycle;Max_cycle;Signal;HPM_P1;HPM_P2
2022/04/09 00:04:23;;;;;;;8.50;4.90;;;;;;;9.46;61.67;96844.02;233397;1217;138538;-60
2022/04/09 00:09:26;;;;;;;7.60;5.20;;;;;;;9.49;61.74;96840.09;233108;1219;139030;-58
2022/04/09 00:14:29;;;;;;;8.80;5.00;;;;;;;9.51;61.82;96845.38;233099;1218;138463;-58
2022/04/09 00:19:32;;;;;;;7.70;5.20;;;;;;;9.54;61.88;96851.55;233259;1219;139802;-60
2022/04/09 00:24:42;;;;;;;9.30;5.20;;;;;;;9.53;61.72;96840.21;232860;1219;138325;-59
2022/04/09 00:29:46;;;;;;;10.40;5.20;;;;;;;9.52;61.84;96840.70;233317;1218;138113;-61
2022/04/09 00:34:49;;;;;;;9.10;5.70;;;;;;;9.48;61.92;96822.52;233150;1219;138905;-60
2022/04/09 00:39:52;;;;;;;7.80;4.80;;;;;;;9.44;62.05;96824.62;233297;1218;138466;-60
2022/04/09 00:44:55;;;;;;;8.00;5.00;;;;;;;9.42;61.98;96830.12;233236;1217;139180;-59
2022/04/09 00:49:58;;;;;;;8.80;5.00;;;;;;;9.39;62.14;96837.34;233298;1217;138810;-59
2022/04/09 00:55:04;;;;;;;7.10;4.60;;;;;;;9.39;62.18;96847.92;233125;1217;139233;-58
2022/04/09 01:00:09;;;;;;;7.00;5.30;;;;;;;9.41;62.31;96847.52;233283;1219;139784;-58
2022/04/09 01:05:13;;;;;;;7.30;5.10;;;;;;;9.46;62.33;96826.37;232812;1218;139564;-59
2022/04/09 01:10:16;;;;;;;9.60;5.90;;;;;;;9.46;62.44;96818.91;233291;1217;138538;-58
2022/04/09 01:15:19;;;;;;;8.50;5.80;;;;;;;9.50;62.50;96813.79;233347;1217;138373;-58
2022/04/09 01:20:26;;;;;;;8.50;5.50;;;;;;;9.51;62.53;96796.71;233311;1219;138312;-59
2022/04/09 01:25:29;;;;;;;7.80;4.70;;;;;;;9.46;62.37;96797.39;233223;1217;138887;-60
2022/04/09 01:30:35;;;;;;;6.50;5.10;;;;;;;9.40;62.37;96784.62;233378;1217;138206;-61
2022/04/09 01:35:38;;;;;;;8.70;5.20;;;;;;;9.38;62.59;96791.17;233521;1217;138661;-60
2022/04/09 01:40:43;;;;;;;7.60;4.70;;;;;;;9.38;62.74;96790.31;233408;1217;138802;-61
2022/04/09 01:45:47;;;;;;;7.10;4.10;;;;;;;9.35;62.54;96799.27;233224;1217;140053;-57
2022/04/09 01:50:54;;;;;;;5.60;4.10;;;;;;;9.37;62.82;96803.01;233318;1217;138982;-60
2022/04/09 01:55:57;;;;;;;5.80;4.30;;;;;;;9.41;62.91;96802.44;233239;1217;138492;-59
2022/04/09 02:01:06;;;;;;;7.00;4.40;;;;;;;9.43;62.82;96817.64;233279;1217;138776;-59
2022/04/09 02:06:09;;;;;;;7.00;4.00;;;;;;;9.43;62.69;96816.43;233353;1217;138651;-57
2022/04/09 02:11:12;;;;;;;6.00;4.00;;;;;;;9.42;62.77;96811.31;233274;1217;138030;-58
2022/04/09 02:16:16;;;;;;;8.20;4.40;;;;;;;9.40;62.75;96827.98;233408;1217;138514;-66
2022/04/09 02:21:20;;;;;;;7.40;4.20;;;;;;;9.39;62.76;96827.36;233245;1218;138227;-62
2022/04/09 02:26:23;;;;;;;7.10;4.00;;;;;;;9.33;62.80;96826.90;233267;1217;138401;-61
2022/04/09 02:31:26;;;;;;;6.50;4.20;;;;;;;9.24;62.88;96816.52;233260;1219;138728;-61
2022/04/09 02:36:32;;;;;;;7.00;3.90;;;;;;;9.23;63.02;96793.64;233168;1219;141131;-60
2022/04/09 02:41:35;;;;;;;7.20;3.80;;;;;;;9.28;63.07;96803.27;233284;1217;138884;-59
2022/04/09 02:46:39;;;;;;;5.60;4.50;;;;;;;9.36;63.31;96793.03;233480;1217;137726;-59
2022/04/09 02:51:43;;;;;;;6.90;4.10;;;;;;;9.37;63.07;96771.34;233374;1217;138972;-59
2022/04/09 02:56:46;;;;;;;7.30;4.40;;;;;;;9.39;63.36;96778.71;233442;1217;138278;-60
2022/04/09 03:01:53;;;;;;;6.80;4.20;;;;;;;9.43;63.36;96750.34;233271;1217;138222;-56
2022/04/09 03:06:58;;;;;;;9.70;5.10;;;;;;;9.41;63.28;96721.77;233329;1217;138607;-58
2022/04/09 03:12:02;;;;;;;5.90;3.90;;;;;;;9.42;63.40;96717.02;233636;1217;138935;-60
2022/04/09 03:17:06;;;;;;;4.70;3.20;;;;;;;9.52;63.60;96721.55;233368;1217;138741;-60
2022/04/09 03:22:10;;;;;;;7.50;4.60;;;;;;;9.51;63.28;96726.12;233394;1218;140122;-57
2022/04/09 03:27:15;;;;;;;41.20;32.90;;;;;;;9.46;63.26;96716.80;233328;1217;138532;-61
2022/04/09 03:32:18;;;;;;;20.10;12.20;;;;;;;9.56;63.83;96699.23;233409;1217;138758;-60
2022/04/09 03:37:24;;;;;;;20.60;13.10;;;;;;;9.63;63.55;96685.98;233315;1217;138956;-60
2022/04/09 03:42:28;;;;;;;22.90;14.40;;;;;;;9.59;63.52;96672.23;233317;1217;138539;-60
2022/04/09 03:47:33;;;;;;;22.80;13.90;;;;;;;9.57;63.42;96673.80;233209;1217;139059;-59
2022/04/09 03:52:38;;;;;;;132.50;87.90;;;;;;;9.58;63.71;96680.98;233325;1217;139780;-61
2022/04/09 03:57:42;;;;;;;31.90;18.30;;;;;;;9.63;63.95;96662.11;233249;1217;139850;-59
2022/04/09 04:02:46;;;;;;;38.80;21.60;;;;;;;9.62;63.96;96654.90;233207;1219;140784;-59
2022/04/09 04:07:52;;;;;;;38.30;20.90;;;;;;;9.56;63.71;96656.77;233247;1219;138398;-58
2022/04/09 04:12:56;;;;;;;39.50;19.70;;;;;;;9.49;63.74;96656.93;233325;1217;139748;-60
2022/04/09 04:18:05;;;;;;;35.20;18.70;;;;;;;9.45;63.98;96655.86;233403;1217;139062;-61
2022/04/09 04:23:11;;;;;;;42.40;23.60;;;;;;;9.51;64.42;96659.18;233242;1217;139203;-60
2022/04/09 04:28:15;;;;;;;42.00;22.80;;;;;;;9.61;64.42;96647.98;233394;1218;138626;-61
2022/04/09 04:33:19;;;;;;;39.10;22.50;;;;;;;9.63;64.45;96652.94;233195;1219;138448;-62
2022/04/09 04:38:27;;;;;;;46.30;23.70;;;;;;;9.60;64.39;96648.05;233252;1219;140001;-63
2022/04/09 04:43:32;;;;;;;43.70;23.50;;;;;;;9.57;64.48;96638.38;233317;1217;139886;-61
2022/04/09 04:48:38;;;;;;;;;;;;;;;9.55;64.60;96637.23;233254;1217;139862;-61
2022/04/09 04:53:42;;;;;;;47.30;24.70;;;;;;;9.56;64.64;96637.83;233505;1215;124958;-61
2022/04/09 04:58:45;;;;;;;48.60;25.80;;;;;;;9.59;65.04;96630.23;233418;1217;139006;-59
2022/04/09 05:03:50;;;;;;;50.60;25.10;;;;;;;9.61;64.86;96642.08;233322;1217;139167;-61
2022/04/09 05:08:57;;;;;;;42.70;25.10;;;;;;;9.56;64.88;96656.45;233341;1217;141382;-62
2022/04/09 05:14:11;;;;;;;37.10;21.70;;;;;;;9.51;64.82;96680.09;233224;1217;138969;-61
2022/04/09 05:19:19;;;;;;;28.50;15.80;;;;;;;9.47;64.94;96689.60;233193;1217;138855;-61
2022/04/09 05:24:27;;;;;;;22.20;13.30;;;;;;;9.45;64.94;96690.40;233327;1217;140425;-61
2022/04/09 05:29:30;;;;;;;15.50;10.10;;;;;;;9.44;64.98;96690.12;233295;1220;139460;-60
2022/04/09 05:34:34;;;;;;;12.20;8.30;;;;;;;9.43;64.96;96696.41;233327;1217;139660;-60
2022/04/09 05:39:37;;;;;;;9.00;6.70;;;;;;;9.45;65.06;96690.17;232483;1218;138350;-60
2022/04/09 05:44:41;;;;;;;5.40;4.20;;;;;;;9.45;64.91;96692.88;233208;1217;139255;-60
2022/04/09 05:49:44;;;;;;;5.80;4.30;;;;;;;9.38;64.76;96694.73;233250;1217;139614;-59
2022/04/09 05:54:48;;;;;;;6.00;3.80;;;;;;;9.34;64.79;96713.17;233159;1219;141900;-59
2022/04/09 05:59:52;;;;;;;4.50;3.20;;;;;;;9.30;64.88;96730.75;233220;1217;138545;-60
2022/04/09 06:04:55;;;;;;;3.20;2.90;;;;;;;9.29;64.93;96731.23;233133;1219;138850;-60
2022/04/09 06:09:59;;;;;;;5.00;2.80;;;;;;;9.32;65.08;96731.42;233263;1220;139388;-60
2022/04/09 06:15:03;;;;;;;4.20;3.30;;;;;;;9.35;65.09;96756.77;233330;1217;138860;-59
2022/04/09 06:20:15;;;;;;;6.80;4.60;;;;;;;9.38;65.17;96804.30;233206;1219;139172;-61
2022/04/09 06:25:19;;;;;;;3.90;3.50;;;;;;;9.39;65.02;96844.89;233307;1217;139008;-60
2022/04/09 06:30:22;;;;;;;3.40;2.60;;;;;;;9.36;64.79;96872.80;233291;1217;138665;-61
2022/04/09 06:35:35;;;;;;;3.20;2.30;;;;;;;9.16;64.48;96888.61;233200;1217;138517;-61
2022/04/09 06:40:41;;;;;;;3.00;1.50;;;;;;;9.10;64.60;96910.77;233386;1217;138848;-59
2022/04/09 06:45:44;;;;;;;2.30;1.30;;;;;;;9.08;64.29;96948.77;233270;1217;138782;-60
2022/04/09 06:51:01;;;;;;;1.60;1.10;;;;;;;8.99;63.84;96977.02;233201;1219;139241;-60
2022/04/09 06:56:07;;;;;;;2.40;1.00;;;;;;;8.84;63.45;96995.27;233305;1217;139100;-61
2022/04/09 07:01:10;;;;;;;1.80;1.20;;;;;;;8.70;63.17;97032.05;233397;1216;138379;-60
2022/04/09 07:06:17;;;;;;;2.20;1.10;;;;;;;8.53;62.88;97045.21;233216;1217;138500;-60
2022/04/09 07:11:20;;;;;;;1.00;0.70;;;;;;;8.36;62.87;97085.88;233425;1217;138376;-58
2022/04/09 07:16:23;;;;;;;1.30;1.00;;;;;;;8.21;62.82;97136.16;233320;1217;138345;-58
2022/04/09 07:21:26;;;;;;;2.70;1.10;;;;;;;8.02;62.54;97161.27;233428;1217;139048;-59
2022/04/09 07:26:30;;;;;;;1.60;1.10;;;;;;;7.83;62.25;97175.36;233256;1217;137993;-59
2022/04/09 07:31:33;;;;;;;1.80;1.20;;;;;;;7.72;62.41;97203.56;233418;1216;139150;-58
2022/04/09 07:36:38;;;;;;;1.80;1.40;;;;;;;7.67;62.42;97241.39;233256;1217;141876;-59
2022/04/09 07:41:41;;;;;;;1.80;1.40;;;;;;;7.65;62.63;97260.66;233438;1217;138803;-59
2022/04/09 07:46:44;;;;;;;10.30;7.00;;;;;;;7.55;62.60;97263.65;233325;1217;138096;-60
2022/04/09 07:51:47;;;;;;;2.50;1.70;;;;;;;7.57;62.58;97285.90;233035;1218;139354;-60
2022/04/09 07:56:51;;;;;;;1.80;1.30;;;;;;;7.48;62.48;97343.61;233285;1217;139225;-59
2022/04/09 08:01:54;;;;;;;3.00;1.70;;;;;;;7.37;62.59;97359.69;233425;1217;139122;-58
2022/04/09 08:06:57;;;;;;;2.80;1.50;;;;;;;7.34;62.53;97379.28;233303;1217;138132;-58
2022/04/09 08:12:00;;;;;;;2.30;1.50;;;;;;;7.29;62.41;97399.05;233576;1217;138020;-59
2022/04/09 08:17:03;;;;;;;2.70;1.60;;;;;;;7.23;62.51;97425.65;233440;1217;138844;-57
2022/04/09 08:22:08;;;;;;;2.60;2.00;;;;;;;7.21;62.35;97449.92;233507;1217;139358;-58
2022/04/09 08:27:11;;;;;;;2.40;1.90;;;;;;;7.19;62.21;97474.42;233277;1217;138655;-59
2022/04/09 08:32:14;;;;;;;3.40;2.50;;;;;;;7.18;62.27;97496.89;233195;1217;137883;-59
2022/04/09 08:37:17;;;;;;;2.80;2.20;;;;;;;7.18;62.26;97508.52;233272;1216;138445;-60
2022/04/09 08:42:21;;;;;;;3.50;2.50;;;;;;;7.12;62.13;97529.07;233332;1217;138384;-60
2022/04/09 08:47:28;;;;;;;2.90;2.00;;;;;;;7.09;62.05;97542.35;233414;1217;139602;-61
2022/04/09 08:52:31;;;;;;;3.50;2.40;;;;;;;7.02;62.04;97534.05;233418;1217;138434;-60
2022/04/09 08:57:35;;;;;;;2.50;2.10;;;;;;;6.99;61.88;97543.80;233397;1217;138199;-60
2022/04/09 09:02:49;;;;;;;2.60;2.00;;;;;;;6.94;62.13;97570.20;233302;1217;138307;-58
2022/04/09 09:07:54;;;;;;;2.50;1.70;;;;;;;6.91;61.92;97580.16;233286;1217;140798;-61
2022/04/09 09:13:01;;;;;;;3.80;1.70;;;;;;;6.94;61.89;97582.54;233333;1217;138554;-59
2022/04/09 09:18:06;;;;;;;3.10;2.10;;;;;;;6.95;61.85;97588.16;233408;1217;138441;-62
2022/04/09 09:23:19;;;;;;;4.20;2.20;;;;;;;6.97;61.93;97614.95;233181;1217;138408;-58
2022/04/09 09:28:27;;;;;;;4.00;2.20;;;;;;;6.96;61.57;97645.59;233441;1217;137908;-60
2022/04/09 09:33:30;;;;;;;3.50;2.40;;;;;;;6.95;61.89;97670.10;233438;1217;138726;-60
2022/04/09 09:39:02;;;;;;;3.40;2.20;;;;;;;6.96;61.41;97688.02;233267;1217;150061;-62
2022/04/09 09:44:07;;;;;;;10.00;6.50;;;;;;;7.07;61.86;97699.09;233424;1215;140518;-62
2022/04/09 09:49:10;;;;;;;4.30;2.40;;;;;;;7.17;61.79;97703.30;233593;1217;138620;-60
2022/04/09 09:54:14;;;;;;;4.20;2.60;;;;;;;7.19;61.38;97703.35;233834;1217;138084;-60
2022/04/09 09:59:17;;;;;;;5.30;2.80;;;;;;;7.17;61.36;97710.88;233736;1217;139209;-60
2022/04/09 10:04:21;;;;;;;4.00;2.80;;;;;;;7.20;61.18;97720.03;233773;1217;138379;-61
2022/04/09 10:09:25;;;;;;;240.80;145.40;;;;;;;7.27;61.61;97723.95;233586;1217;139153;-58
2022/04/09 10:14:32;;;;;;;12.70;6.20;;;;;;;7.46;61.61;97737.64;233611;1217;139609;-62
2022/04/09 10:19:43;;;;;;;7.50;4.50;;;;;;;7.64;61.55;97756.13;233755;1215;138778;-62
2022/04/09 10:24:47;;;;;;;7.90;4.10;;;;;;;7.68;61.29;97768.77;233837;1217;138488;-61
2022/04/09 10:29:51;;;;;;;5.50;3.70;;;;;;;7.70;61.32;97759.72;232994;1217;138292;-61
2022/04/09 10:34:58;;;;;;;7.80;4.20;;;;;;;7.74;61.02;97769.69;233893;1217;138040;-63
2022/04/09 10:40:04;;;;;;;7.00;4.20;;;;;;;7.78;61.20;97779.50;232611;1217;137895;-59
2022/04/09 10:45:07;;;;;;;9.50;4.80;;;;;;;7.83;61.31;97787.27;233591;1217;137917;-62
2022/04/09 10:50:11;;;;;;;10.50;5.00;;;;;;;7.86;61.13;97793.94;233712;1217;138833;-61
2022/04/09 10:55:20;;;;;;;7.30;5.20;;;;;;;7.88;60.89;97803.19;233651;1219;137839;-61
2022/04/09 11:00:23;;;;;;;10.50;5.90;;;;;;;7.82;60.81;97809.60;233801;1217;139124;-61
2022/04/09 11:05:26;;;;;;;7.10;5.30;;;;;;;7.77;60.74;97809.02;233784;1217;138667;-61
2022/04/09 11:10:31;;;;;;;404.50;255.90;;;;;;;7.77;60.79;97803.06;233693;1217;138412;-60
2022/04/09 11:15:34;;;;;;;13.80;7.80;;;;;;;7.94;61.21;97791.27;233681;1218;139585;-60
2022/04/09 11:20:38;;;;;;;11.10;7.00;;;;;;;7.99;60.78;97795.64;233793;1217;138288;-61
2022/04/09 11:25:43;;;;;;;16.00;7.60;;;;;;;8.03;60.75;97824.53;233932;1215;138674;-61
2022/04/09 11:30:54;;;;;;;8.90;7.10;;;;;;;8.13;60.77;97838.46;233770;1217;138401;-60
2022/04/09 11:35:59;;;;;;;10.40;7.60;;;;;;;8.23;60.81;97837.72;233495;1217;139075;-62
2022/04/09 11:41:19;;;;;;;13.40;7.70;;;;;;;8.31;60.46;97857.32;233648;1217;138402;-61
2022/04/09 11:46:22;;;;;;;11.70;7.90;;;;;;;8.32;60.27;97876.33;233570;1217;139835;-59
2022/04/09 11:51:25;;;;;;;13.30;8.30;;;;;;;8.24;59.90;97880.75;233396;1217;139521;-61
2022/04/09 11:56:30;;;;;;;18.00;8.90;;;;;;;8.15;59.75;97890.98;233135;1217;138282;-62
2022/04/09 12:01:36;;;;;;;15.00;9.20;;;;;;;8.17;60.01;97889.06;233058;1218;139483;-61
2022/04/09 12:06:40;;;;;;;14.90;9.30;;;;;;;8.20;60.27;97900.12;233029;1219;138749;-61
2022/04/09 12:11:53;;;;;;;10.70;8.20;;;;;;;8.21;60.18;97913.47;233051;1217;138385;-60
2022/04/09 12:17:18;;;;;;;11.50;8.30;;;;;;;8.23;60.12;97916.01;233130;1217;139146;-62
2022/04/09 12:22:23;;;;;;;14.20;9.00;;;;;;;8.25;60.10;97922.42;233239;1217;139276;-62
2022/04/09 12:27:45;;;;;;;49.40;32.30;;;;;;;8.30;60.92;97923.30;233069;1217;138510;-58
2022/04/09 12:33:07;;;;;;;24.70;14.80;;;;;;;9.91;65.36;97928.38;233026;1217;139251;-59
2022/04/09 12:38:10;;;;;;;17.90;10.80;;;;;;;11.12;62.74;97926.59;233186;1218;139244;-60
2022/04/09 12:43:36;;;;;;;16.30;9.90;;;;;;;11.83;61.58;97919.05;233115;1218;139132;-59
2022/04/09 12:48:49;;;;;;;12.60;8.10;;;;;;;12.37;60.03;97917.84;233183;1219;138451;-59
2022/04/09 12:53:53;;;;;;;14.70;8.80;;;;;;;12.86;59.36;97914.55;233266;1217;138909;-58
2022/04/09 12:58:55;;;;;;;16.60;10.00;;;;;;;12.82;56.78;97920.05;233207;1217;138697;-59
2022/04/09 13:03:58;;;;;;;14.60;8.90;;;;;;;12.35;55.71;97917.41;233267;1217;138744;-59
2022/04/09 13:09:01;;;;;;;15.60;10.60;;;;;;;12.00;56.03;97912.11;233262;1217;138445;-59
2022/04/09 13:14:05;;;;;;;15.20;9.10;;;;;;;11.91;55.90;97912.16;233115;1217;139175;-59
2022/04/09 13:19:08;;;;;;;14.70;10.30;;;;;;;11.90;56.44;97911.38;233129;1217;139921;-59
2022/04/09 13:24:11;;;;;;;24.40;13.10;;;;;;;12.09;56.00;97937.71;233088;1219;140667;-60
2022/04/09 13:29:14;;;;;;;16.10;10.40;;;;;;;11.77;54.48;97963.09;233128;1218;139926;-61
2022/04/09 13:34:18;;;;;;;16.90;11.20;;;;;;;11.03;54.25;97961.09;233257;1218;139076;-62
2022/04/09 13:39:21;;;;;;;16.00;10.50;;;;;;;10.31;54.30;97963.57;233056;1217;141239;-60
2022/04/09 13:44:33;;;;;;;15.40;10.40;;;;;;;9.69;54.64;97961.08;233148;1217;138790;-61
2022/04/09 13:49:36;;;;;;;14.60;9.20;;;;;;;9.32;55.31;97966.52;233191;1217;138402;-63
2022/04/09 13:54:39;;;;;;;13.30;9.80;;;;;;;9.08;55.76;97952.02;233064;1217;138787;-60
2022/04/09 13:59:42;;;;;;;50.50;40.00;;;;;;;8.96;56.16;97952.20;233103;1219;138861;-60
2022/04/09 14:04:46;;;;;;;31.00;20.70;;;;;;;8.83;56.31;97963.92;233271;1217;138672;-61
2022/04/09 14:09:49;;;;;;;11.30;6.90;;;;;;;8.71;56.44;97975.02;233257;1217;138517;-59
2022/04/09 14:14:53;;;;;;;12.30;7.10;;;;;;;8.61;56.55;97982.11;233078;1217;138675;-61
2022/04/09 14:19:56;;;;;;;8.20;6.10;;;;;;;8.49;56.64;97984.20;233225;1217;139398;-60
2022/04/09 14:24:58;;;;;;;15.30;7.20;;;;;;;8.38;56.82;97986.75;233170;1217;138495;-60
2022/04/09 14:30:03;;;;;;;129.60;94.90;;;;;;;8.27;57.18;97991.33;233082;1217;138763;-60
2022/04/09 14:35:06;;;;;;;10.10;6.90;;;;;;;8.35;57.52;97994.15;233127;1217;140069;-62
2022/04/09 14:40:10;;;;;;;6.50;3.90;;;;;;;8.37;56.91;97993.70;233344;1217;138259;-61
2022/04/09 14:45:15;;;;;;;5.90;3.30;;;;;;;8.37;56.60;97990.89;233094;1217;137962;-60
2022/04/09 14:50:18;;;;;;;7.40;3.70;;;;;;;8.37;56.25;97994.01;233124;1218;138335;-59
2022/04/09 14:55:21;;;;;;;7.60;3.70;;;;;;;8.35;55.93;97992.58;233193;1217;138139;-62
2022/04/09 15:00:24;;;;;;;8.70;3.30;;;;;;;8.29;55.79;97998.98;233232;1217;138340;-61
2022/04/09 15:05:28;;;;;;;8.20;3.50;;;;;;;8.26;55.78;97998.15;233147;1217;139166;-61
2022/04/09 15:10:32;;;;;;;5.30;3.10;;;;;;;8.35;55.79;98005.30;233351;1217;138291;-61
2022/04/09 15:15:35;;;;;;;6.80;3.10;;;;;;;8.36;55.68;98015.34;233055;1217;138206;-62
2022/04/09 15:20:38;;;;;;;313.20;228.70;;;;;;;8.31;55.77;98025.55;233117;1217;138468;-57
2022/04/09 15:25:41;;;;;;;21.60;14.10;;;;;;;8.45;56.27;98017.33;233150;1217;139266;-60
2022/04/09 15:30:44;;;;;;;12.40;6.30;;;;;;;8.55;55.98;98004.80;233149;1217;138648;-60
2022/04/09 15:35:48;;;;;;;12.10;5.70;;;;;;;8.58;55.92;98000.73;232713;1217;138965;-60
2022/04/09 15:40:51;;;;;;;13.60;6.00;;;;;;;8.68;56.01;98009.52;233302;1216;138782;-60
2022/04/09 15:45:55;;;;;;;10.90;6.30;;;;;;;8.77;56.08;98016.89;233172;1217;138511;-59
2022/04/09 15:50:58;;;;;;;12.40;6.90;;;;;;;8.83;56.00;98017.86;233252;1217;138402;-60
2022/04/09 15:56:01;;;;;;;16.10;7.30;;;;;;;8.87;55.90;98020.97;233122;1217;138569;-59
2022/04/09 16:01:04;;;;;;;11.10;6.90;;;;;;;8.91;55.94;98019.91;233104;1217;138433;-59
2022/04/09 16:06:07;;;;;;;13.20;6.70;;;;;;;8.96;55.77;98034.77;233160;1217;138390;-61
2022/04/09 16:11:12;;;;;;;13.50;6.70;;;;;;;8.99;55.72;98043.92;233233;1217;138187;-60
2022/04/09 16:16:16;;;;;;;11.80;7.00;;;;;;;9.04;55.58;98048.92;233194;1217;138777;-61
2022/04/09 16:21:20;;;;;;;150.30;111.50;;;;;;;9.06;55.53;98057.95;233105;1217;138424;-62
2022/04/09 16:26:24;;;;;;;20.20;11.90;;;;;;;9.19;55.79;98063.94;233083;1217;139466;-61
2022/04/09 16:31:27;;;;;;;18.40;8.40;;;;;;;9.37;55.57;98067.42;233163;1217;138905;-61
2022/04/09 16:36:30;;;;;;;11.70;6.50;;;;;;;9.40;55.19;98070.70;233126;1217;138513;-58
2022/04/09 16:41:33;;;;;;;14.10;6.30;;;;;;;9.41;54.98;98065.86;233164;1217;138700;-58
2022/04/09 16:46:37;;;;;;;55.00;44.80;;;;;;;9.39;54.98;98065.66;233221;1217;138930;-60
2022/04/09 16:51:40;;;;;;;24.50;15.20;;;;;;;9.44;55.51;98070.39;233206;1217;140023;-62
2022/04/09 16:56:43;;;;;;;12.90;7.60;;;;;;;9.55;55.32;98065.55;233109;1217;139351;-62
2022/04/09 17:01:46;;;;;;;13.00;6.70;;;;;;;9.49;54.63;98079.84;233277;1217;139572;-59
2022/04/09 17:06:50;;;;;;;13.00;5.10;;;;;;;9.40;54.02;98086.09;233187;1217;140164;-63
2022/04/09 17:11:54;;;;;;;7.80;3.70;;;;;;;9.34;53.32;98087.83;233201;1217;138605;-63
2022/04/09 17:16:58;;;;;;;8.50;4.10;;;;;;;9.26;52.85;98093.55;233176;1217;138913;-61
2022/04/09 17:22:02;;;;;;;7.40;3.70;;;;;;;9.17;52.35;98090.77;233438;1217;138942;-61
2022/04/09 17:27:08;;;;;;;8.30;4.10;;;;;;;9.10;52.02;98085.12;233154;1217;139346;-62
2022/04/09 17:32:11;;;;;;;151.80;109.60;;;;;;;9.07;51.98;98081.42;233073;1219;138388;-60
2022/04/09 17:37:13;;;;;;;25.50;12.20;;;;;;;9.17;52.15;98083.54;232941;1217;139156;-59
2022/04/09 17:42:16;;;;;;;13.80;6.20;;;;;;;9.15;51.45;98090.23;233203;1217;140950;-60
2022/04/09 17:47:24;;;;;;;11.80;4.40;;;;;;;9.06;51.18;98093.19;233164;1217;138187;-58
2022/04/09 17:52:27;;;;;;;7.50;3.90;;;;;;;8.97;51.11;98092.40;233253;1217;138809;-61
2022/04/09 17:57:31;;;;;;;6.80;3.70;;;;;;;8.86;50.94;98103.45;233137;1217;138682;-61
2022/04/09 18:02:34;;;;;;;6.80;4.00;;;;;;;8.78;51.07;98110.21;233163;1217;138141;-60
2022/04/09 18:07:37;;;;;;;10.40;4.10;;;;;;;8.69;51.13;98123.67;233173;1217;138282;-59
2022/04/09 18:12:40;;;;;;;11.50;3.80;;;;;;;8.63;50.97;98140.20;233078;1217;138915;-59
2022/04/09 18:17:43;;;;;;;9.90;4.10;;;;;;;8.57;50.75;98149.84;233091;1217;138536;-63
2022/04/09 18:22:47;;;;;;;12.30;4.60;;;;;;;8.51;50.77;98162.76;233084;1217;138479;-59
2022/04/09 18:27:50;;;;;;;194.80;148.40;;;;;;;8.47;51.20;98163.92;233409;1217;138203;-62
2022/04/09 18:32:54;;;;;;;27.10;14.80;;;;;;;8.67;52.19;98166.96;233271;1217;138684;-63
2022/04/09 18:37:57;;;;;;;12.50;6.70;;;;;;;8.83;51.42;98174.05;233223;1217;138551;-63
2022/04/09 18:43:01;;;;;;;14.50;5.80;;;;;;;8.70;51.15;98183.23;233133;1217;139525;-62
2022/04/09 18:48:04;;;;;;;14.50;6.60;;;;;;;8.55;51.06;98187.42;233206;1217;138266;-64
2022/04/09 18:53:10;;;;;;;17.00;8.30;;;;;;;8.44;51.14;98201.09;232818;1217;138303;-62
2022/04/09 18:58:14;;;;;;;17.60;9.00;;;;;;;8.41;51.49;98213.80;233424;1217;138129;-60
2022/04/09 19:03:17;;;;;;;21.40;10.40;;;;;;;8.31;51.65;98219.40;233236;1217;137757;-62
2022/04/09 19:08:20;;;;;;;18.70;10.20;;;;;;;8.18;51.87;98224.33;233304;1217;139108;-63
2022/04/09 19:13:23;;;;;;;21.80;11.00;;;;;;;8.06;52.15;98241.73;233399;1217;138344;-63
2022/04/09 19:18:29;;;;;;;;;;;;;;;7.92;52.62;98246.84;233357;1215;140092;-59
2022/04/09 19:23:33;;;;;;;21.40;11.70;;;;;;;7.83;52.84;98248.85;233287;1217;124400;-61
2022/04/09 19:28:37;;;;;;;21.10;11.50;;;;;;;7.75;53.35;98258.88;233367;1217;138619;-61
2022/04/09 19:33:40;;;;;;;23.20;11.80;;;;;;;7.71;53.82;98268.48;233395;1217;139114;-61
2022/04/09 19:38:43;;;;;;;22.10;12.30;;;;;;;7.64;53.96;98274.03;233292;1217;138928;-62
2022/04/09 19:43:46;;;;;;;21.50;13.40;;;;;;;7.58;54.14;98271.60;233219;1217;139572;-62
2022/04/09 19:48:52;;;;;;;24.20;13.10;;;;;;;7.51;54.15;98275.89;233233;1217;138540;-62
2022/04/09 19:53:55;;;;;;;21.00;12.80;;;;;;;7.47;54.43;98290.43;233285;1217;138754;-60
2022/04/09 19:58:58;;;;;;;23.30;14.10;;;;;;;7.42;54.69;98293.25;233195;1217;139217;-60
2022/04/09 20:04:01;;;;;;;25.90;14.10;;;;;;;7.33;54.70;98296.73;233469;1217;139617;-64
2022/04/09 20:09:04;;;;;;;26.00;15.30;;;;;;;7.28;54.92;98296.16;233258;1217;138839;-66
2022/04/09 20:14:10;;;;;;;23.40;14.60;;;;;;;7.23;55.19;98299.16;233321;1217;139495;-63
2022/04/09 20:19:13;;;;;;;26.50;14.90;;;;;;;7.14;55.45;98305.15;233187;1217;139270;-62
2022/04/09 20:24:16;;;;;;;25.60;15.00;;;;;;;7.08;55.61;98307.46;233253;1217;140460;-61
2022/04/09 20:29:19;;;;;;;26.90;15.30;;;;;;;7.04;55.67;98308.23;233273;1217;138495;-62
2022/04/09 20:34:22;;;;;;;26.00;14.90;;;;;;;7.01;55.97;98308.93;233538;1216;138708;-66
2022/04/09 20:39:29;;;;;;;26.70;15.30;;;;;;;6.95;55.92;98310.33;233332;1217;138883;-62
2022/04/09 20:44:32;;;;;;;28.80;16.00;;;;;;;6.91;56.27;98312.52;233344;1217;138609;-58
2022/04/09 20:49:37;;;;;;;29.30;17.20;;;;;;;6.86;56.43;98315.10;233275;1217;139326;-61
2022/04/09 20:54:43;;;;;;;27.50;17.00;;;;;;;6.80;56.63;98318.24;232582;1217;138982;-60
2022/04/09 20:59:46;;;;;;;30.10;16.80;;;;;;;6.75;56.94;98318.92;233385;1217;139068;-60
2022/04/09 21:04:49;;;;;;;29.10;17.20;;;;;;;6.72;57.10;98325.77;233456;1217;139379;-62
2022/04/09 21:09:52;;;;;;;30.00;17.00;;;;;;;6.68;57.04;98330.80;233283;1217;139209;-63
2022/04/09 21:14:56;;;;;;;29.20;17.90;;;;;;;6.61;57.14;98325.55;233372;1217;138789;-63
2022/04/09 21:19:59;;;;;;;29.70;18.30;;;;;;;6.58;57.44;98329.61;233286;1217;138474;-60
2022/04/09 21:25:02;;;;;;;31.40;18.00;;;;;;;6.54;57.56;98335.29;233314;1217;138881;-58
2022/04/09 21:30:06;;;;;;;30.60;18.80;;;;;;;6.47;57.59;98345.54;233366;1217;139130;-64
2022/04/09 21:35:10;;;;;;;31.10;18.70;;;;;;;6.42;57.90;98354.98;233334;1217;139644;-57
2022/04/09 21:40:16;;;;;;;31.10;18.60;;;;;;;6.39;57.87;98356.60;233415;1217;139444;-60
2022/04/09 21:45:19;;;;;;;32.60;19.00;;;;;;;6.33;58.17;98368.54;233375;1217;138750;-62
2022/04/09 21:50:22;;;;;;;36.90;21.00;;;;;;;6.27;58.45;98368.48;233307;1217;138989;-62
2022/04/09 21:55:26;;;;;;;29.00;19.00;;;;;;;6.22;58.38;98377.27;233380;1217;139584;-60
2022/04/09 22:00:40;;;;;;;29.50;19.30;;;;;;;6.24;58.46;98376.29;233423;1217;139608;-60
2022/04/09 22:05:43;;;;;;;32.40;19.60;;;;;;;6.29;58.74;98374.02;233170;1217;139705;-59
2022/04/09 22:10:47;;;;;;;33.40;19.00;;;;;;;6.34;58.83;98375.14;233424;1217;138631;-61
2022/04/09 22:15:51;;;;;;;31.90;19.50;;;;;;;6.37;58.64;98379.17;233303;1217;138873;-62
2022/04/09 22:20:54;;;;;;;26.20;17.10;;;;;;;6.33;58.49;98379.97;233378;1215;140106;-61
2022/04/09 22:26:00;;;;;;;28.80;17.60;;;;;;;6.28;58.38;98380.98;233295;1217;138717;-59
2022/04/09 22:31:04;;;;;;;29.00;17.90;;;;;;;6.22;58.74;98391.00;233359;1217;140371;-61
2022/04/09 22:36:07;;;;;;;30.70;18.60;;;;;;;6.18;58.53;98396.86;233433;1217;139057;-60
2022/04/09 22:41:10;;;;;;;31.30;19.90;;;;;;;6.11;58.58;98407.95;233332;1217;139688;-60
2022/04/09 22:46:13;;;;;;;28.80;18.20;;;;;;;6.04;58.89;98412.94;233434;1217;138485;-60
2022/04/09 22:51:16;;;;;;;29.60;19.20;;;;;;;6.00;58.95;98411.58;233271;1217;138909;-60
2022/04/09 22:56:19;;;;;;;32.10;17.90;;;;;;;5.94;59.12;98412.23;233427;1217;138894;-59
2022/04/09 23:01:22;;;;;;;32.30;19.00;;;;;;;5.89;59.24;98410.66;233314;1217;139681;-58
2022/04/09 23:06:25;;;;;;;31.60;18.00;;;;;;;5.89;59.34;98412.65;233277;1217;138976;-60
2022/04/09 23:11:28;;;;;;;30.60;18.80;;;;;;;5.85;59.63;98412.84;233312;1216;139238;-57
2022/04/09 23:16:31;;;;;;;36.20;18.90;;;;;;;5.83;59.59;98415.58;233483;1216;138907;-59
2022/04/09 23:21:34;;;;;;;37.20;18.60;;;;;;;5.82;59.61;98420.05;233389;1217;140067;-64